メインページ
METAR-TAF:

METAR-TAF

空港 :

Port Hardy, ブリティッシュコロンビア州, カナダ

緯度: 50-41N, 経度: 127-22W, 海抜: 22m

現時点の気象観測

当レポートは11分前の18:00(UTC)に作成
北東の風 6kt
気温 15°C
湿度 82%
気圧 1021 hPa
視程: 32.2km
高度500ftの雲は散在している

METAR: CYZT 161800Z 04006KT 20SM SCT005 15/12 A3014 RMK ST3 SLP208

時間: 11:11 (18:11 UTC)

予報

当レポートは5時間33分前の12:38(UTC)に作成
予報は16日の 13時(UTC)から 17日の 01時(UTC)まで有効
変向風 3kt
視程: 10km
高度900ftの雲は散在している
16日の 13時(UTC)から 16日の 18時(UTC)まで一時的に
高度500ftの雲は散在している
高度900ftの千切れ雲あり
確率 30%
16日の 13時(UTC)から 16日の 18時(UTC)まで
高度500ftの千切れ雲あり
高度900ftの千切れ雲あり
16日の 1800時(UTC)から
の風 8kt
視程: 10km
晴天

TAF: CYZT 161238Z 1613/1701 VRB03KT P6SM SCT009 TEMPO 1613/1618 SCT005 BKN009 PROB30 1613/1618 BKN005 BKN009 FM161800 36008KT P6SM SKC RMK NXT FCST BY 161900Z

4,000以上の空港の気象観測と天気予報(METAR報とTAF報)

利用可能な観測所は地図上に黄色い丸と赤い丸で示す。

丸の上にカーソルを重ねると観測所名を参照できる。

次にクリックすると気象観測と天気予報を参照できる。

マップの切り替え:黒色「×」印の緑ボタンをクリックして拡大、「-」印の緑ボタンをクリックして縮小、緑色の三角印をクリックして隣りの地図に切り替え


METAR-TAF: